Time;durP1;ratioP1;P1;durP2;ratioP2;P2;SDS_P1;SDS_P2;PMS_P1;PMS_P2;Temp;Humidity;BMP_temperature;BMP_pressure;BME280_temperature;BME280_humidity;BME280_pressure;Samples;Min_cycle;Max_cycle;Signal;HPM_P1;HPM_P2
2023/07/07 00:01:35;;;;;;;7.17;3.13;;;;;;;14.23;90.60;101367.00;6004790;28;20030;-66
2023/07/07 00:04:30;;;;;;;6.28;3.30;;;;;;;14.17;90.63;101367.63;6006200;28;20077;-67
2023/07/07 00:07:26;;;;;;;7.33;2.40;;;;;;;14.16;90.93;101371.25;6006125;28;20037;-66
2023/07/07 00:10:21;;;;;;;5.97;2.57;;;;;;;14.07;91.06;101374.03;6009673;28;20040;-66
2023/07/07 00:13:16;;;;;;;4.73;2.50;;;;;;;13.88;92.43;101369.69;6004467;28;20449;-66
2023/07/07 00:16:13;;;;;;;3.97;2.10;;;;;;;13.78;93.37;101374.22;6017208;28;20042;-66
2023/07/07 00:19:09;;;;;;;3.88;2.15;;;;;;;13.95;93.03;101383.22;6006209;28;20130;-66
2023/07/07 00:22:06;;;;;;;4.32;2.20;;;;;;;13.76;93.03;101389.53;6004413;28;20027;-66
2023/07/07 00:25:03;;;;;;;5.30;2.38;;;;;;;13.53;94.57;101369.63;6003637;28;20477;-65
2023/07/07 00:27:58;;;;;;;7.68;2.67;;;;;;;13.69;94.51;101381.31;6004450;28;20064;-66
2023/07/07 00:30:53;;;;;;;5.17;2.23;;;;;;;13.63;94.43;101394.38;6007851;28;20480;-66
2023/07/07 00:33:49;;;;;;;5.73;2.93;;;;;;;13.65;95.00;101400.38;6003406;28;20486;-66
2023/07/07 00:36:44;;;;;;;5.50;2.57;;;;;;;13.56;95.30;101395.97;6005227;28;20281;-66
2023/07/07 00:39:39;;;;;;;5.65;2.50;;;;;;;13.50;94.91;101391.22;6003795;28;20265;-65
2023/07/07 00:42:35;;;;;;;5.40;2.70;;;;;;;13.27;96.00;101380.13;6008083;28;20035;-65
2023/07/07 00:45:30;;;;;;;5.35;2.63;;;;;;;13.34;96.62;101396.34;6003463;28;20081;-66
2023/07/07 00:48:42;;;;;;;6.97;2.63;;;;;;;13.19;96.96;101387.16;6003488;28;20042;-66
2023/07/07 00:51:41;;;;;;;12.13;2.88;;;;;;;13.14;97.58;101382.28;6003946;28;20078;-66
2023/07/07 00:54:36;;;;;;;5.82;2.83;;;;;;;13.15;97.38;101397.28;5985844;28;20526;-67
2023/07/07 00:57:32;;;;;;;6.73;2.43;;;;;;;13.25;97.39;101394.56;6003777;28;20043;-66
2023/07/07 01:00:27;;;;;;;10.07;3.10;;;;;;;13.18;96.95;101385.50;6008543;28;20030;-66
2023/07/07 01:03:28;;;;;;;9.00;3.10;;;;;;;13.25;96.34;101403.41;6014600;28;20042;-66
2023/07/07 01:06:27;;;;;;;4.95;2.38;;;;;;;13.17;97.16;101405.97;6003503;28;20027;-66
2023/07/07 01:09:22;;;;;;;5.63;2.70;;;;;;;13.17;97.20;101405.97;6006913;28;20034;-66
2023/07/07 01:12:18;;;;;;;4.10;2.53;;;;;;;13.03;97.19;101377.09;6008510;28;20034;-66
2023/07/07 01:15:13;;;;;;;4.60;3.00;;;;;;;13.13;97.19;101392.09;6001929;28;20114;-66
2023/07/07 01:18:28;;;;;;;3.97;2.50;;;;;;;13.08;97.51;101399.69;6008287;28;20351;-66
2023/07/07 01:21:34;;;;;;;4.47;2.33;;;;;;;13.00;97.35;101378.22;6007400;28;20458;-66
2023/07/07 01:24:35;;;;;;;;;;;;;;;13.11;97.73;101399.38;6003204;28;20038;-66
2023/07/07 01:27:42;;;;;;;4.75;2.65;;;;;;;13.13;97.33;101377.91;6021978;28;20258;-65
2023/07/07 01:30:47;;;;;;;;;;;;;;;13.11;97.33;101399.38;6002560;28;20030;-65
2023/07/07 01:33:44;;;;;;;3.92;2.38;;;;;;;13.00;97.76;101396.03;6029980;28;20345;-66
2023/07/07 01:36:39;;;;;;;8.70;2.90;;;;;;;12.89;98.48;101378.41;6001536;28;20073;-65
2023/07/07 01:39:35;;;;;;;4.57;2.53;;;;;;;12.95;98.49;101396.47;6012026;28;20038;-65
2023/07/07 01:42:36;;;;;;;5.35;2.90;;;;;;;12.93;98.85;101397.59;6002657;28;20109;-65
2023/07/07 01:45:41;;;;;;;6.47;3.00;;;;;;;12.87;98.37;101388.38;6005214;28;20109;-65
2023/07/07 01:48:55;;;;;;;4.28;2.53;;;;;;;12.89;98.48;101409.50;6002588;28;20041;-65
2023/07/07 01:51:57;;;;;;;6.68;3.13;;;;;;;12.87;98.47;101401.66;6005970;28;20031;-66
2023/07/07 01:54:59;;;;;;;5.93;2.78;;;;;;;12.79;98.50;101396.22;6001798;28;20081;-66
2023/07/07 01:57:57;;;;;;;5.35;2.60;;;;;;;12.69;99.43;101392.72;6011136;28;20046;-66
2023/07/07 02:00:55;;;;;;;5.45;2.60;;;;;;;12.69;99.60;101400.72;6006258;28;20072;-65
2023/07/07 02:03:50;;;;;;;6.25;3.38;;;;;;;12.47;100.00;101375.25;6014592;28;20030;-66
2023/07/07 02:06:46;;;;;;;6.97;3.00;;;;;;;12.56;100.00;101400.16;6007597;28;20037;-66
2023/07/07 02:09:41;;;;;;;5.90;2.67;;;;;;;12.42;100.00;101384.63;6014454;28;20034;-65
2023/07/07 02:12:36;;;;;;;4.82;2.60;;;;;;;12.34;100.00;101368.53;6009462;28;20490;-65
2023/07/07 02:15:32;;;;;;;4.90;2.73;;;;;;;12.44;100.00;101386.22;6006489;28;20039;-66
2023/07/07 02:18:27;;;;;;;6.63;2.63;;;;;;;12.42;100.00;101385.47;6007352;28;20037;-65
2023/07/07 02:21:22;;;;;;;7.23;3.23;;;;;;;12.32;100.00;101387.31;6018521;28;20040;-65
2023/07/07 02:24:18;;;;;;;6.27;2.83;;;;;;;12.33;100.00;101385.50;6007299;28;20026;-65
2023/07/07 02:27:14;;;;;;;6.20;2.90;;;;;;;12.30;100.00;101391.09;6017229;28;20341;-65
2023/07/07 02:30:09;;;;;;;5.55;3.03;;;;;;;12.33;100.00;101394.31;6017554;28;20269;-66
2023/07/07 02:33:08;;;;;;;5.05;3.05;;;;;;;12.27;100.00;101396.69;6006792;28;20485;-66
2023/07/07 02:36:06;;;;;;;6.95;3.42;;;;;;;12.33;100.00;101401.47;6006005;28;20043;-66
2023/07/07 02:39:02;;;;;;;8.65;3.00;;;;;;;12.36;100.00;101401.19;6006100;28;20026;-65
2023/07/07 02:41:57;;;;;;;8.90;3.05;;;;;;;12.27;100.00;101408.19;6005461;28;20037;-65
2023/07/07 02:44:52;;;;;;;5.40;3.10;;;;;;;12.33;100.00;101406.78;6009801;28;20046;-65
2023/07/07 02:47:48;;;;;;;8.73;3.20;;;;;;;12.35;100.00;101397.69;6012814;28;20035;-65
2023/07/07 02:50:43;;;;;;;6.60;2.80;;;;;;;12.25;100.00;101402.16;6006864;28;20037;-65
2023/07/07 02:53:38;;;;;;;5.30;3.00;;;;;;;12.27;100.00;101405.53;6006547;28;20711;-65
2023/07/07 02:56:33;;;;;;;8.03;3.60;;;;;;;12.26;100.00;101402.97;6007626;28;20105;-65
2023/07/07 02:59:29;;;;;;;12.13;3.20;;;;;;;12.16;100.00;101387.03;6006125;28;20030;-65
2023/07/07 03:02:24;;;;;;;6.20;2.93;;;;;;;12.21;100.00;101392.78;6006015;28;20470;-65
2023/07/07 03:05:19;;;;;;;7.50;2.67;;;;;;;12.49;100.00;101401.72;6005744;28;20035;-66
2023/07/07 03:08:15;;;;;;;7.07;3.77;;;;;;;12.53;100.00;101414.59;6005808;28;20035;-65
2023/07/07 03:11:12;;;;;;;7.50;3.00;;;;;;;12.70;100.00;101413.03;6017887;28;20068;-65
2023/07/07 03:14:07;;;;;;;8.48;3.17;;;;;;;12.50;100.00;101411.41;6005027;28;20035;-65
2023/07/07 03:17:05;;;;;;;6.47;3.40;;;;;;;12.46;100.00;101399.34;6005730;28;20105;-65
2023/07/07 03:20:00;;;;;;;9.90;3.22;;;;;;;12.37;100.00;101406.34;6005416;28;20033;-65
2023/07/07 03:22:56;;;;;;;4.35;2.67;;;;;;;12.24;100.00;101405.78;6008864;28;20026;-65
2023/07/07 03:25:51;;;;;;;7.40;3.10;;;;;;;12.24;100.00;101426.22;6005728;28;20430;-65
2023/07/07 03:28:46;;;;;;;8.63;3.67;;;;;;;12.17;100.00;101414.47;6005218;28;20031;-65
2023/07/07 03:31:42;;;;;;;8.25;2.97;;;;;;;12.23;100.00;101428.03;6006474;28;20215;-65
2023/07/07 03:34:41;;;;;;;7.60;3.77;;;;;;;12.07;100.00;101402.97;6004647;28;20030;-65
2023/07/07 03:37:37;;;;;;;11.18;3.60;;;;;;;12.11;100.00;101425.66;6007606;28;20673;-65
2023/07/07 03:40:32;;;;;;;7.15;2.88;;;;;;;12.13;100.00;101413.91;6018259;28;20077;-65
2023/07/07 03:43:28;;;;;;;7.90;3.47;;;;;;;12.20;100.00;101414.19;6008369;28;20022;-66
2023/07/07 03:46:25;;;;;;;7.83;3.23;;;;;;;12.38;100.00;101425.81;6009389;28;20034;-66
2023/07/07 03:49:20;;;;;;;9.48;3.13;;;;;;;12.28;100.00;101428.50;6004944;28;20031;-65
2023/07/07 03:52:16;;;;;;;8.43;3.20;;;;;;;12.18;100.00;101432.09;6006111;28;20034;-65
2023/07/07 03:55:11;;;;;;;9.40;3.50;;;;;;;12.04;100.00;101424.53;6004023;28;20078;-65
2023/07/07 03:58:06;;;;;;;9.67;3.67;;;;;;;12.09;100.00;101443.56;6008606;28;20466;-66
2023/07/07 04:01:06;;;;;;;7.87;3.30;;;;;;;12.16;100.00;101452.66;6017027;28;20041;-65
2023/07/07 04:04:02;;;;;;;7.68;2.83;;;;;;;12.34;100.00;101445.69;6007877;28;20031;-66
2023/07/07 04:06:58;;;;;;;10.47;3.30;;;;;;;12.50;100.00;101451.31;6006351;28;20045;-66
2023/07/07 04:09:54;;;;;;;8.63;3.55;;;;;;;12.49;100.00;101437.16;6008252;28;20387;-66
2023/07/07 04:12:49;;;;;;;10.07;3.38;;;;;;;12.47;100.00;101447.06;6004210;28;20026;-65
2023/07/07 04:15:59;;;;;;;6.60;3.20;;;;;;;12.54;100.00;101440.22;6004130;28;20377;-66
2023/07/07 04:18:56;;;;;;;8.57;2.90;;;;;;;12.78;99.81;101447.75;6005591;28;20103;-66
2023/07/07 04:21:51;;;;;;;11.75;3.20;;;;;;;12.75;99.00;101448.03;6004483;28;20568;-65
2023/07/07 04:24:46;;;;;;;7.43;3.30;;;;;;;12.97;97.99;101453.06;6006287;28;20062;-65
2023/07/07 04:27:43;;;;;;;8.60;3.10;;;;;;;13.13;97.83;101453.34;6016265;28;20048;-66
2023/07/07 04:30:38;;;;;;;7.68;3.30;;;;;;;13.72;94.13;101452.13;6009101;28;20556;-65
2023/07/07 04:33:35;;;;;;;9.57;3.37;;;;;;;14.05;90.26;101451.50;6003072;28;20039;-66
2023/07/07 04:36:30;;;;;;;7.15;3.15;;;;;;;13.93;90.64;101463.38;6004023;28;20049;-65
2023/07/07 04:39:25;;;;;;;7.63;3.60;;;;;;;14.10;90.23;101454.59;6005753;28;20034;-65
2023/07/07 04:42:21;;;;;;;11.03;3.23;;;;;;;14.12;89.94;101470.41;6009169;28;20417;-65
2023/07/07 04:45:16;;;;;;;9.60;3.80;;;;;;;14.24;88.24;101450.56;6017206;28;20090;-66
2023/07/07 04:48:11;;;;;;;7.30;3.90;;;;;;;14.10;88.69;101470.59;6006634;28;20266;-66
2023/07/07 04:51:08;;;;;;;14.07;4.17;;;;;;;14.55;86.43;101456.38;6003625;28;20030;-67
2023/07/07 04:54:05;;;;;;;10.07;4.05;;;;;;;15.10;84.27;101475.66;6002799;28;20026;-66
2023/07/07 04:57:00;;;;;;;14.43;4.25;;;;;;;15.00;83.37;101467.75;6006945;28;20022;-66
2023/07/07 04:59:55;;;;;;;11.00;4.03;;;;;;;14.93;84.00;101474.72;6003444;28;20030;-66
2023/07/07 05:02:50;;;;;;;17.63;4.20;;;;;;;15.34;81.53;101463.31;6003144;28;20290;-66
2023/07/07 05:05:46;;;;;;;14.67;3.50;;;;;;;15.44;79.40;101458.66;6003055;28;20046;-66
2023/07/07 05:08:42;;;;;;;9.13;3.50;;;;;;;15.91;78.32;101469.78;6003456;28;20281;-66
2023/07/07 05:11:37;;;;;;;7.78;2.90;;;;;;;15.83;77.35;101479.59;6009694;28;20026;-66
2023/07/07 05:14:32;;;;;;;7.82;3.17;;;;;;;16.08;73.90;101471.53;6002899;28;20520;-66
2023/07/07 05:17:28;;;;;;;9.10;3.60;;;;;;;15.83;75.07;101466.22;6007233;28;20558;-66
2023/07/07 05:20:23;;;;;;;14.17;3.90;;;;;;;16.31;73.25;101490.47;6003110;28;20018;-66
2023/07/07 05:23:18;;;;;;;15.38;5.07;;;;;;;16.98;70.98;101473.31;6002581;28;20050;-66
2023/07/07 05:26:14;;;;;;;8.70;4.10;;;;;;;16.63;72.43;101470.97;6012616;28;20057;-66
2023/07/07 05:29:09;;;;;;;13.27;4.70;;;;;;;17.05;70.18;101474.28;6003050;28;20058;-66
2023/07/07 05:32:05;;;;;;;21.15;5.20;;;;;;;16.94;69.73;101471.97;6002996;28;20030;-66
2023/07/07 05:35:00;;;;;;;14.40;5.20;;;;;;;16.92;71.51;101478.50;6001406;28;20378;-66
2023/07/07 05:37:56;;;;;;;16.83;4.87;;;;;;;16.95;70.01;101488.88;6010968;28;20030;-66
2023/07/07 05:40:52;;;;;;;14.80;4.80;;;;;;;17.51;68.24;101488.78;6005905;28;20422;-66
2023/07/07 05:43:49;;;;;;;16.77;4.40;;;;;;;17.50;69.14;101484.41;6004549;28;20145;-66
2023/07/07 05:46:44;;;;;;;11.52;4.68;;;;;;;18.79;64.68;101489.16;6002226;28;20110;-66
2023/07/07 05:49:40;;;;;;;15.60;4.43;;;;;;;18.32;66.52;101485.75;6002508;28;20023;-67
2023/07/07 05:52:35;;;;;;;17.93;5.27;;;;;;;17.76;66.59;101474.31;6002387;28;20055;-66
2023/07/07 05:55:32;;;;;;;16.40;4.63;;;;;;;17.99;67.50;101485.09;6003190;28;20027;-66
2023/07/07 05:58:27;;;;;;;14.20;4.65;;;;;;;18.40;65.95;101496.44;6001265;28;20370;-66
2023/07/07 06:01:23;;;;;;;13.53;4.40;;;;;;;19.07;64.04;101493.97;6002544;28;20049;-66
2023/07/07 06:04:18;;;;;;;11.77;4.97;;;;;;;19.18;62.18;101498.91;6007596;28;20022;-67
2023/07/07 06:07:14;;;;;;;15.90;5.80;;;;;;;19.32;61.31;101490.84;6008852;28;20066;-66
2023/07/07 06:10:10;;;;;;;16.47;6.90;;;;;;;19.23;60.71;101501.88;6003695;28;20058;-66
2023/07/07 06:13:05;;;;;;;15.18;5.10;;;;;;;19.68;58.56;101499.06;6009573;28;20504;-65
2023/07/07 06:16:00;;;;;;;16.77;5.30;;;;;;;19.35;59.21;101498.53;6001954;28;20027;-65
2023/07/07 06:18:56;;;;;;;19.27;5.80;;;;;;;19.45;59.33;101507.22;6005304;28;20035;-65
2023/07/07 06:21:51;;;;;;;20.55;6.50;;;;;;;19.43;58.30;101497.69;6002856;28;20058;-65
2023/07/07 06:24:47;;;;;;;18.23;5.93;;;;;;;19.49;59.38;101497.75;6010284;28;20031;-65
2023/07/07 06:27:42;;;;;;;23.45;6.45;;;;;;;19.51;58.55;101494.91;6008297;28;20121;-66
2023/07/07 06:30:37;;;;;;;15.03;5.90;;;;;;;20.63;54.97;101500.66;6003585;28;20035;-65
2023/07/07 06:33:33;;;;;;;20.00;5.60;;;;;;;20.46;56.86;101503.78;6002844;28;20096;-65
2023/07/07 06:36:28;;;;;;;15.20;5.20;;;;;;;20.59;55.40;101495.84;6006407;28;20031;-65
2023/07/07 06:39:23;;;;;;;16.57;4.37;;;;;;;20.82;55.31;101501.06;6002190;28;20274;-65
2023/07/07 06:42:18;;;;;;;11.43;4.17;;;;;;;21.23;52.67;101489.38;6002193;28;20031;-66
2023/07/07 06:45:14;;;;;;;11.27;4.10;;;;;;;20.69;53.99;101509.81;6001493;28;20098;-65
2023/07/07 06:48:09;;;;;;;9.93;3.60;;;;;;;20.64;52.91;101510.41;6007279;28;20473;-65
2023/07/07 06:51:05;;;;;;;14.77;4.47;;;;;;;20.23;53.44;101505.75;6020332;28;20800;-65
2023/07/07 06:54:00;;;;;;;6.93;3.50;;;;;;;21.11;51.10;101511.72;6005803;28;20037;-66
2023/07/07 06:56:55;;;;;;;10.40;3.70;;;;;;;21.11;51.45;101512.53;6005840;28;20113;-67
2023/07/07 06:59:51;;;;;;;9.33;3.70;;;;;;;21.65;50.80;101509.19;6006358;28;20031;-66
2023/07/07 07:02:46;;;;;;;12.87;4.50;;;;;;;21.24;51.47;101496.44;6005911;28;20153;-66
2023/07/07 07:05:41;;;;;;;9.17;4.03;;;;;;;22.47;49.09;101505.41;6005461;28;20039;-66
2023/07/07 07:08:36;;;;;;;8.57;3.55;;;;;;;22.90;45.92;101510.50;6005939;28;20031;-65
2023/07/07 07:11:32;;;;;;;8.57;3.23;;;;;;;23.09;44.60;101502.38;6005679;28;20033;-66
2023/07/07 07:14:27;;;;;;;10.43;3.47;;;;;;;23.02;44.25;101516.94;6009536;28;20042;-66
2023/07/07 07:17:23;;;;;;;11.53;3.77;;;;;;;22.63;46.23;101506.94;6005666;28;20050;-67
2023/07/07 07:20:19;;;;;;;10.45;3.47;;;;;;;23.18;46.20;101513.84;6008310;28;20057;-66
2023/07/07 07:23:15;;;;;;;11.33;3.13;;;;;;;22.66;45.89;101508.38;6014385;28;20034;-66
2023/07/07 07:26:10;;;;;;;8.90;3.28;;;;;;;22.52;47.46;101508.31;6005139;28;20277;-66
2023/07/07 07:29:06;;;;;;;11.60;2.97;;;;;;;22.50;47.89;101504.16;6013549;28;20499;-66
2023/07/07 07:32:01;;;;;;;9.50;3.22;;;;;;;22.56;47.53;101499.81;6005506;28;20270;-66
2023/07/07 07:34:57;;;;;;;10.02;2.65;;;;;;;22.13;47.95;101486.56;6004334;28;20049;-65
2023/07/07 07:37:52;;;;;;;14.73;2.90;;;;;;;22.56;47.99;101486.28;6016984;28;20125;-65
2023/07/07 07:40:51;;;;;;;8.43;2.73;;;;;;;22.61;47.51;101497.31;6004882;28;20077;-66
2023/07/07 07:43:46;;;;;;;4.82;2.40;;;;;;;23.45;44.89;101498.41;6004862;28;20030;-65
2023/07/07 07:46:43;;;;;;;5.97;2.60;;;;;;;23.31;45.94;101507.56;6004860;28;20090;-66
2023/07/07 07:49:38;;;;;;;9.13;2.97;;;;;;;23.48;43.81;101498.81;6005023;28;20054;-66
2023/07/07 07:52:33;;;;;;;6.20;2.27;;;;;;;23.91;43.42;101495.59;6006487;28;20532;-65
2023/07/07 07:55:29;;;;;;;5.70;2.10;;;;;;;23.86;43.67;101498.09;6012766;28;20035;-65
2023/07/07 07:58:24;;;;;;;8.00;2.40;;;;;;;24.01;42.32;101498.66;6004142;28;20042;-66
2023/07/07 08:01:20;;;;;;;6.80;2.13;;;;;;;24.03;43.66;101496.56;6008170;28;20027;-65
2023/07/07 08:04:15;;;;;;;4.53;1.57;;;;;;;24.27;42.96;101501.28;6003688;28;20027;-66
2023/07/07 08:07:10;;;;;;;8.77;2.30;;;;;;;25.03;41.78;101501.22;6007934;28;20045;-66
2023/07/07 08:10:06;;;;;;;5.00;1.77;;;;;;;25.12;41.64;101508.03;6012988;28;20270;-65
2023/07/07 08:13:01;;;;;;;5.13;1.80;;;;;;;25.22;40.70;101502.94;6004785;28;20462;-65
2023/07/07 08:15:56;;;;;;;6.47;2.07;;;;;;;24.66;42.39;101501.06;6003774;28;20051;-66
2023/07/07 08:18:52;;;;;;;5.63;1.83;;;;;;;24.85;40.88;101505.53;6006573;28;20041;-67
2023/07/07 08:21:47;;;;;;;3.10;1.50;;;;;;;25.16;42.49;101503.84;6013856;28;20050;-67
2023/07/07 08:24:49;;;;;;;6.50;2.00;;;;;;;24.83;40.01;101496.78;6003611;28;20402;-65
2023/07/07 08:27:44;;;;;;;4.13;1.80;;;;;;;24.78;40.96;101507.44;6013960;28;20056;-66
2023/07/07 08:30:39;;;;;;;6.53;1.40;;;;;;;25.00;41.20;101505.22;6005368;28;20027;-66
2023/07/07 08:33:34;;;;;;;2.63;1.20;;;;;;;25.28;41.08;101496.59;6015883;28;20057;-66
2023/07/07 08:36:30;;;;;;;5.33;1.57;;;;;;;25.88;39.64;101509.38;6005839;28;20037;-67
2023/07/07 08:39:28;;;;;;;3.17;1.70;;;;;;;25.48;39.94;101508.16;6003785;28;20018;-67
2023/07/07 08:42:34;;;;;;;3.03;1.50;;;;;;;25.29;39.21;101507.25;6004691;28;20104;-66
2023/07/07 08:45:30;;;;;;;3.45;1.60;;;;;;;25.14;40.07;101490.47;6019386;28;20032;-66
2023/07/07 08:48:37;;;;;;;3.15;1.60;;;;;;;25.13;39.95;101504.28;6008529;28;20026;-66
2023/07/07 08:51:50;;;;;;;5.97;1.65;;;;;;;25.41;40.45;101493.78;6010752;28;20047;-66
2023/07/07 08:55:05;;;;;;;5.20;1.50;;;;;;;25.87;37.77;101496.81;6002954;28;20030;-66
2023/07/07 08:58:17;;;;;;;3.00;1.40;;;;;;;26.36;37.31;101508.59;6003663;28;20111;-67
2023/07/07 09:01:19;;;;;;;4.78;1.75;;;;;;;26.11;37.34;101503.25;6000981;28;20031;-67
2023/07/07 09:04:23;;;;;;;4.75;1.48;;;;;;;26.17;38.30;101513.25;6014396;28;20602;-67
2023/07/07 09:07:40;;;;;;;2.53;1.40;;;;;;;25.92;39.36;101510.59;6002466;28;20039;-67
2023/07/07 09:10:48;;;;;;;3.42;1.50;;;;;;;25.92;37.71;101516.03;6003156;28;20054;-66
2023/07/07 09:13:44;;;;;;;2.83;1.58;;;;;;;25.47;39.22;101511.91;6004324;28;20042;-66
2023/07/07 09:16:40;;;;;;;4.13;1.35;;;;;;;25.33;38.55;101504.91;6002426;28;20364;-66
2023/07/07 09:19:38;;;;;;;3.78;1.42;;;;;;;26.16;39.20;101514.28;6020485;28;20088;-67
2023/07/07 09:22:40;;;;;;;2.60;1.30;;;;;;;26.37;37.04;101510.25;6002859;28;20554;-67
2023/07/07 09:25:40;;;;;;;3.80;1.40;;;;;;;26.42;35.52;101502.22;6002176;28;20092;-67
2023/07/07 09:28:40;;;;;;;2.28;1.15;;;;;;;26.53;35.89;101510.44;6002182;28;20117;-68
2023/07/07 09:31:42;;;;;;;2.85;1.15;;;;;;;26.35;32.60;101506.94;6001687;28;20463;-67
2023/07/07 09:34:39;;;;;;;2.85;1.27;;;;;;;26.23;32.20;101500.59;6002185;28;20442;-67
2023/07/07 09:37:40;;;;;;;3.53;1.20;;;;;;;26.36;33.16;101512.13;6002771;28;20039;-67
2023/07/07 09:40:43;;;;;;;2.80;1.50;;;;;;;26.44;34.33;101503.63;6004036;28;20414;-67
2023/07/07 09:43:48;;;;;;;4.18;1.42;;;;;;;26.83;33.86;101496.81;6001401;28;20097;-67
2023/07/07 09:46:48;;;;;;;2.45;1.38;;;;;;;26.91;34.74;101515.53;6008782;28;20366;-67
2023/07/07 09:49:54;;;;;;;4.10;1.20;;;;;;;26.40;34.92;101497.00;5998958;28;20042;-66
2023/07/07 09:52:53;;;;;;;2.08;1.20;;;;;;;26.71;31.89;101506.00;6001814;28;20454;-66
2023/07/07 09:55:49;;;;;;;3.05;1.40;;;;;;;26.73;34.36;101496.53;6001648;28;20030;-67
2023/07/07 09:58:50;;;;;;;2.95;1.33;;;;;;;26.73;31.92;101501.97;6000019;28;20053;-67
2023/07/07 10:01:49;;;;;;;2.45;1.30;;;;;;;26.98;32.55;101513.53;6000113;28;20054;-67
2023/07/07 10:04:48;;;;;;;2.60;1.27;;;;;;;27.10;33.08;101489.84;6005891;28;20093;-67
2023/07/07 10:07:43;;;;;;;2.40;1.20;;;;;;;27.15;33.94;101503.59;6003125;28;20038;-67
2023/07/07 10:10:38;;;;;;;2.93;1.50;;;;;;;27.24;32.84;101495.06;6001878;28;20035;-67
2023/07/07 10:13:33;;;;;;;3.33;1.37;;;;;;;27.12;33.19;101492.38;6001579;28;20057;-68
2023/07/07 10:16:32;;;;;;;5.60;1.40;;;;;;;27.07;32.75;101509.38;6006684;28;20050;-67
2023/07/07 10:19:28;;;;;;;5.50;1.20;;;;;;;26.88;31.89;101509.75;6009489;28;20031;-67
2023/07/07 10:22:23;;;;;;;6.03;1.77;;;;;;;26.12;33.20;101504.09;6005198;28;20031;-68
2023/07/07 10:25:19;;;;;;;4.27;1.23;;;;;;;26.12;34.00;101498.66;6010762;28;20023;-67
2023/07/07 10:28:16;;;;;;;3.38;1.35;;;;;;;26.50;33.66;101512.78;6007211;28;20270;-67
2023/07/07 10:31:11;;;;;;;2.95;1.30;;;;;;;26.76;34.04;101500.66;6010439;28;20027;-67
2023/07/07 10:34:21;;;;;;;3.50;1.50;;;;;;;26.58;33.58;101494.22;6006166;28;20625;-67
2023/07/07 10:37:16;;;;;;;2.88;1.33;;;;;;;26.95;32.96;101494.94;6018762;28;20046;-67
2023/07/07 10:40:21;;;;;;;2.90;1.50;;;;;;;26.98;32.81;101486.31;6006633;28;20031;-68
2023/07/07 10:43:18;;;;;;;4.03;1.30;;;;;;;27.26;33.48;101480.16;6006462;28;20031;-68
2023/07/07 10:46:14;;;;;;;2.63;1.40;;;;;;;27.31;31.90;101482.19;6009751;28;20038;-68
2023/07/07 10:49:14;;;;;;;4.88;1.55;;;;;;;27.34;32.19;101482.50;6006972;28;20113;-69
2023/07/07 10:52:27;;;;;;;4.30;1.60;;;;;;;27.20;33.75;101487.38;6005283;28;20031;-68
2023/07/07 10:55:43;;;;;;;4.28;1.38;;;;;;;27.00;34.26;101494.22;6006178;28;20030;-67
2023/07/07 10:59:19;;;;;;;2.85;1.20;;;;;;;27.23;33.20;101486.09;6005222;28;20035;-67
2023/07/07 11:02:32;;;;;;;2.53;1.35;;;;;;;27.73;31.82;101486.41;5950410;28;20391;-68
2023/07/07 11:05:37;;;;;;;2.60;1.40;;;;;;;27.68;31.86;101469.97;6010899;28;20467;-68
2023/07/07 11:08:38;;;;;;;3.53;1.63;;;;;;;27.97;34.29;101479.84;6014565;28;20471;-69
2023/07/07 11:12:15;;;;;;;3.67;1.45;;;;;;;27.73;34.35;101481.81;6006066;28;20394;-67
2023/07/07 11:15:13;;;;;;;2.75;1.25;;;;;;;27.92;33.19;101468.81;6003736;28;20035;-68
2023/07/07 11:18:26;;;;;;;2.28;1.30;;;;;;;27.89;33.09;101474.75;6007680;28;20094;-67
2023/07/07 11:21:24;;;;;;;3.05;1.20;;;;;;;27.50;32.90;101484.56;6023043;28;20034;-68
2023/07/07 11:24:37;;;;;;;2.97;1.30;;;;;;;27.94;31.16;101469.41;6004980;28;20030;-67
2023/07/07 11:27:54;;;;;;;2.60;1.30;;;;;;;28.03;31.25;101478.91;6004696;28;20053;-68
2023/07/07 11:31:20;;;;;;;3.58;1.60;;;;;;;27.99;31.64;101477.72;6011239;28;20026;-68
2023/07/07 11:34:53;;;;;;;3.28;1.40;;;;;;;28.46;30.51;101470.16;6003619;28;20489;-68
2023/07/07 11:38:32;;;;;;;3.13;1.40;;;;;;;27.62;30.49;101463.56;6005799;28;20078;-68
2023/07/07 11:41:50;;;;;;;2.67;1.20;;;;;;;27.93;32.01;101472.38;6005493;28;20037;-68
2023/07/07 11:45:23;;;;;;;2.97;1.42;;;;;;;28.03;32.49;101473.44;6002946;28;20042;-68
2023/07/07 11:48:55;;;;;;;2.53;1.15;;;;;;;27.91;31.49;101477.25;6005303;28;20080;-68
2023/07/07 11:52:10;;;;;;;3.45;1.20;;;;;;;27.76;31.49;101455.94;6004993;28;20070;-68
2023/07/07 11:55:23;;;;;;;2.83;1.25;;;;;;;27.95;32.19;101468.34;6004368;28;20466;-68
2023/07/07 11:58:41;;;;;;;1.88;0.98;;;;;;;27.94;32.36;101469.41;6007313;28;20046;-68
2023/07/07 12:01:40;;;;;;;2.35;1.50;;;;;;;28.00;31.41;101467.59;6007522;28;20417;-68
2023/07/07 12:04:44;;;;;;;2.80;1.60;;;;;;;28.00;30.41;101454.81;6003161;28;20042;-68
2023/07/07 12:07:51;;;;;;;2.60;1.15;;;;;;;27.77;29.42;101450.28;6007111;28;20026;-68
2023/07/07 12:10:55;;;;;;;3.60;1.52;;;;;;;28.12;31.73;101460.25;6003474;28;20023;-68
2023/07/07 12:14:06;;;;;;;3.42;1.30;;;;;;;28.18;29.66;101462.81;6002650;28;20053;-68
2023/07/07 12:17:03;;;;;;;2.50;1.40;;;;;;;28.62;32.28;101453.00;5999079;28;20042;-68
2023/07/07 12:20:23;;;;;;;2.10;1.23;;;;;;;28.24;28.72;101453.66;6006111;28;20681;-68
2023/07/07 12:23:30;;;;;;;4.40;1.70;;;;;;;28.27;30.67;101439.53;6010446;28;20043;-68
2023/07/07 12:26:30;;;;;;;3.67;1.40;;;;;;;28.41;29.58;101433.75;6003286;28;20501;-68
2023/07/07 12:29:27;;;;;;;3.72;1.38;;;;;;;28.91;30.11;101434.66;6006656;28;20029;-68
2023/07/07 12:32:22;;;;;;;2.45;1.45;;;;;;;28.95;30.88;101422.13;6002934;28;20037;-69
2023/07/07 12:35:27;;;;;;;2.87;1.40;;;;;;;28.75;30.69;101435.50;6002999;28;20102;-69
2023/07/07 12:38:29;;;;;;;3.92;1.50;;;;;;;29.06;28.24;101429.41;6005463;28;20734;-69
2023/07/07 12:41:26;;;;;;;3.67;1.48;;;;;;;29.31;27.54;101435.28;6009872;28;20038;-68
2023/07/07 12:44:21;;;;;;;2.53;1.10;;;;;;;28.82;28.63;101425.22;5999669;28;20070;-68
2023/07/07 12:47:38;;;;;;;3.70;1.40;;;;;;;29.58;30.05;101429.06;5997735;28;20038;-67
2023/07/07 12:50:36;;;;;;;3.15;1.40;;;;;;;29.51;28.78;101430.06;5997533;28;20069;-67
2023/07/07 12:53:35;;;;;;;3.70;1.45;;;;;;;29.44;29.52;101429.44;6000050;28;20038;-68
2023/07/07 12:56:31;;;;;;;4.20;1.40;;;;;;;29.22;30.41;101428.59;6007695;28;20129;-69
2023/07/07 12:59:38;;;;;;;3.60;1.10;;;;;;;29.31;30.30;101421.63;6003375;28;20048;-68
2023/07/07 13:02:33;;;;;;;2.17;1.40;;;;;;;29.36;30.65;101394.34;6002714;28;20035;-69
2023/07/07 13:05:32;;;;;;;3.53;1.37;;;;;;;29.20;29.62;101397.94;6000062;28;20077;-68
2023/07/07 13:08:38;;;;;;;3.63;1.23;;;;;;;28.94;28.79;101401.38;5999970;28;20049;-68
2023/07/07 13:11:35;;;;;;;;;;;;;;;29.45;27.97;101417.44;6006813;28;20034;-69
2023/07/07 13:14:36;;;;;;;3.55;1.25;;;;;;;29.42;29.61;101412.47;6000286;28;20068;-68
2023/07/07 13:17:31;;;;;;;5.10;1.30;;;;;;;29.44;29.33;101390.34;6006032;28;20034;-68
2023/07/07 13:20:27;;;;;;;2.50;1.33;;;;;;;29.64;27.95;101407.00;5998767;28;20046;-68
2023/07/07 13:23:32;;;;;;;3.58;1.40;;;;;;;29.75;28.77;101394.28;6001682;28;20038;-68
2023/07/07 13:26:30;;;;;;;4.68;1.45;;;;;;;29.67;27.44;101400.22;6003383;28;20053;-69
2023/07/07 13:29:25;;;;;;;3.55;1.20;;;;;;;30.15;31.38;101407.59;6000645;28;20042;-68
2023/07/07 13:32:27;;;;;;;3.50;1.52;;;;;;;30.51;26.58;101406.88;5998908;28;20034;-68
2023/07/07 13:35:25;;;;;;;3.83;1.40;;;;;;;30.54;28.25;101400.88;6001522;28;20038;-68
2023/07/07 13:38:25;;;;;;;3.38;1.40;;;;;;;30.59;25.72;101415.44;6000285;28;20030;-68
2023/07/07 13:41:20;;;;;;;6.82;1.20;;;;;;;30.79;27.23;101395.63;6009049;28;20046;-69
2023/07/07 13:44:19;;;;;;;3.05;1.38;;;;;;;30.64;26.79;101393.56;5999829;28;20035;-68
2023/07/07 13:47:16;;;;;;;1.70;1.13;;;;;;;30.51;26.60;101407.72;6002198;28;20030;-68
2023/07/07 13:50:21;;;;;;;3.17;1.13;;;;;;;30.61;28.01;101410.53;6008323;28;20045;-68
2023/07/07 13:53:16;;;;;;;2.70;1.30;;;;;;;30.75;25.81;101401.88;6007448;28;20034;-68